createdAt,value
2018-08-21T05:49:37.909Z,22.08
2018-08-21T05:50:07.542Z,22.14
2018-08-21T05:51:07.790Z,22.18
2018-08-21T05:52:07.813Z,22.18
2018-08-21T05:53:07.808Z,22.13
2018-08-21T05:54:07.814Z,22.08
2018-08-21T05:55:07.922Z,22.11
2018-08-21T05:56:07.580Z,22.15
2018-08-21T05:57:07.556Z,22.25
2018-08-21T05:58:07.310Z,22.25
2018-08-21T05:59:07.572Z,22.32
2018-08-21T06:00:09.262Z,22.55
2018-08-21T06:01:07.571Z,22.81
2018-08-21T06:02:07.829Z,23.31
2018-08-21T06:03:07.822Z,23.76
2018-08-21T06:04:07.320Z,24.3
2018-08-21T06:05:08.676Z,24.81
2018-08-21T06:06:07.579Z,25.06
2018-08-21T06:07:07.588Z,25.26
2018-08-21T06:08:07.737Z,25.41
2018-08-21T06:09:07.861Z,25.31
2018-08-21T06:10:07.863Z,25.21
2018-08-21T06:11:07.359Z,25.1
2018-08-21T06:12:07.619Z,25.08
2018-08-21T06:13:07.613Z,25.08
2018-08-21T06:14:07.742Z,25.06
2018-08-21T06:15:07.364Z,24.99
2018-08-21T06:16:07.627Z,24.88
2018-08-21T06:17:07.637Z,24.63
2018-08-21T06:18:07.645Z,24.54
2018-08-21T06:19:07.693Z,24.51
2018-08-21T06:20:08.215Z,24.66
2018-08-21T06:21:07.652Z,24.63
2018-08-21T06:22:07.396Z,24.7
2018-08-21T06:23:07.653Z,24.85
2018-08-21T06:24:07.408Z,25.21
2018-08-21T06:25:07.678Z,25.72
2018-08-21T06:26:07.666Z,26.15
2018-08-21T06:27:07.691Z,26.6
2018-08-21T06:28:07.690Z,26.96
2018-08-21T06:29:07.711Z,27.52
2018-08-21T06:30:07.472Z,27.93
2018-08-21T06:31:07.698Z,28.26
2018-08-21T06:32:08.034Z,28.56
2018-08-21T06:33:07.711Z,28.88
2018-08-21T06:34:07.973Z,29.17
2018-08-21T06:35:07.727Z,29.45
2018-08-21T06:36:07.836Z,29.65
2018-08-21T06:37:07.747Z,29.82
2018-08-21T06:38:07.818Z,30.06
2018-08-21T06:39:07.743Z,30.28
2018-08-21T06:40:07.768Z,30.18
2018-08-21T06:41:08.028Z,30
2018-08-21T06:42:07.774Z,30.05
2018-08-21T06:43:08.031Z,30.12
2018-08-21T06:44:07.802Z,30.12
2018-08-21T06:45:07.950Z,30.19
2018-08-21T06:46:07.795Z,29.97
2018-08-21T06:47:07.591Z,29.97
2018-08-21T06:48:07.548Z,30.13
2018-08-21T06:49:08.074Z,30.18
2018-08-21T06:50:09.072Z,30.34
2018-08-21T06:51:07.572Z,30.59
2018-08-21T06:52:07.839Z,30.61
2018-08-21T06:53:08.057Z,30.78
2018-08-21T06:54:07.887Z,30.83
2018-08-21T06:55:07.875Z,31.15
2018-08-21T06:56:07.882Z,31.59
2018-08-21T06:57:08.144Z,31.58
2018-08-21T06:58:07.883Z,31.47
2018-08-21T06:59:07.632Z,31.28
2018-08-21T07:00:07.694Z,31.43
2018-08-21T07:01:07.906Z,31.46
2018-08-21T07:02:08.161Z,31.56
2018-08-21T07:03:07.905Z,31.73
2018-08-21T07:04:08.207Z,31.7
2018-08-21T07:05:07.918Z,31.58
2018-08-21T07:06:07.686Z,31.39
2018-08-21T07:07:08.204Z,30.92
2018-08-21T07:08:07.957Z,30.63
2018-08-21T07:09:08.222Z,30.46
2018-08-21T07:10:08.413Z,30.24
2018-08-21T07:11:08.225Z,30.18
2018-08-21T07:12:07.970Z,29.94
2018-08-21T07:13:07.724Z,29.84
2018-08-21T07:14:07.744Z,29.66
2018-08-21T07:15:08.542Z,29.56
2018-08-21T07:16:08.003Z,29.47
2018-08-21T07:17:08.278Z,29.51
2018-08-21T07:18:08.274Z,29.35
2018-08-21T07:19:08.325Z,29.02
2018-08-21T07:20:08.036Z,28.86
2018-08-21T07:21:07.815Z,28.6
2018-08-21T07:22:08.124Z,28.41
2018-08-21T07:23:08.320Z,28.14
2018-08-21T07:24:08.331Z,28.02
2018-08-21T07:25:08.448Z,27.85
2018-08-21T07:26:08.066Z,27.85
2018-08-21T07:27:08.092Z,27.51
2018-08-21T07:28:08.131Z,27.49
2018-08-21T07:29:08.588Z,27.58
2018-08-21T07:30:08.421Z,27.54
2018-08-21T07:31:07.855Z,27.49
2018-08-21T07:32:08.111Z,27.45
2018-08-21T07:33:08.362Z,27.37
2018-08-21T07:34:08.377Z,27.45
2018-08-21T07:35:07.998Z,27.27
2018-08-21T07:36:08.399Z,27.22
2018-08-21T07:37:08.162Z,27.08
2018-08-21T07:38:08.141Z,26.93
2018-08-21T07:39:08.159Z,26.97
2018-08-21T07:40:08.584Z,26.97
2018-08-21T07:41:07.895Z,26.93
2018-08-21T07:42:08.422Z,27
2018-08-21T07:43:08.428Z,26.89
2018-08-21T07:44:07.937Z,26.83
2018-08-21T07:45:08.486Z,26.75
2018-08-21T07:46:08.189Z,26.74
2018-08-21T07:47:08.466Z,26.71
2018-08-21T07:48:08.458Z,26.84
2018-08-21T07:49:08.467Z,26.99
2018-08-21T07:50:08.505Z,27.11
2018-08-21T07:51:08.720Z,27.1
2018-08-21T07:52:08.507Z,27.1
2018-08-21T07:53:08.461Z,27.12
2018-08-21T07:54:08.538Z,26.97
2018-08-21T07:55:08.000Z,26.97
2018-08-21T07:56:08.242Z,26.95
2018-08-21T07:57:08.252Z,26.97
2018-08-21T07:58:08.472Z,27
2018-08-21T07:59:08.262Z,26.8
2018-08-21T08:00:08.291Z,26.77
2018-08-21T08:01:08.531Z,26.73
2018-08-21T08:02:08.274Z,26.75
2018-08-21T08:03:08.538Z,26.73
2018-08-21T08:04:08.949Z,26.59
2018-08-21T08:05:08.386Z,26.52
2018-08-21T08:06:08.609Z,26.44
2018-08-21T08:07:08.567Z,26.58
2018-08-21T08:08:08.348Z,26.66
2018-08-21T08:09:08.329Z,26.8
2018-08-21T08:10:08.410Z,27.11
2018-08-21T08:11:08.575Z,27.15
2018-08-21T08:12:08.320Z,27.07
2018-08-21T08:13:08.608Z,27.07
2018-08-21T08:14:09.295Z,26.97
2018-08-21T08:15:08.727Z,26.93
2018-08-21T08:16:08.372Z,27.1
2018-08-21T08:17:08.344Z,27.36
2018-08-21T08:18:08.613Z,27.52
2018-08-21T08:19:08.553Z,27.55
2018-08-21T08:20:08.886Z,27.74
2018-08-21T08:21:09.423Z,27.73
2018-08-21T08:22:08.135Z,28.19
2018-08-21T08:23:09.099Z,28.69
2018-08-21T08:24:08.391Z,29.13
2018-08-21T08:25:08.438Z,29.51
2018-08-21T08:26:08.681Z,29.69
2018-08-21T08:27:08.415Z,29.56
2018-08-21T08:28:08.705Z,29.51
2018-08-21T08:29:09.000Z,29.5
2018-08-21T08:30:08.501Z,29.63
2018-08-21T08:31:08.685Z,29.86
2018-08-21T08:32:08.717Z,29.88
2018-08-21T08:33:08.506Z,29.94
2018-08-21T08:34:08.477Z,29.98
2018-08-21T08:35:08.779Z,29.84
2018-08-21T08:36:08.733Z,29.63
2018-08-21T08:37:08.214Z,29.36
2018-08-21T08:38:08.723Z,28.98
2018-08-21T08:39:08.737Z,28.64
2018-08-21T08:40:08.657Z,28.45
2018-08-21T08:41:08.493Z,28.29
2018-08-21T08:42:08.695Z,28.14
2018-08-21T08:43:08.772Z,28.04
2018-08-21T08:44:08.782Z,28.07
2018-08-21T08:45:08.293Z,28.17
2018-08-21T08:46:08.780Z,28.12
2018-08-21T08:47:08.524Z,28.2
2018-08-21T08:48:08.555Z,28.17
2018-08-21T08:49:08.540Z,28.22
2018-08-21T08:50:08.918Z,28.25
2018-08-21T08:51:08.700Z,28.38
2018-08-21T08:52:08.291Z,28.41
2018-08-21T08:53:08.824Z,28.41
2018-08-21T08:54:08.836Z,28.25
2018-08-21T08:55:08.780Z,28.39
2018-08-21T08:56:08.837Z,28.44
2018-08-21T08:57:08.340Z,28.47
2018-08-21T08:58:08.591Z,28.48
2018-08-21T08:59:08.656Z,28.25
2018-08-21T09:00:08.528Z,28.1
2018-08-21T09:01:08.881Z,28.07
2018-08-21T09:02:08.648Z,28.07
2018-08-21T09:03:08.888Z,28.15
2018-08-21T09:04:08.892Z,28.27
2018-08-21T09:05:09.070Z,28.25
2018-08-21T09:06:08.644Z,28.22
2018-08-21T09:07:08.390Z,28.1
2018-08-21T09:08:08.915Z,28.04
2018-08-21T09:09:08.667Z,28.04
2018-08-21T09:10:09.096Z,28.07
2018-08-21T09:11:08.681Z,28.19
2018-08-21T09:12:08.952Z,28.3
2018-08-21T09:13:08.684Z,28.35
2018-08-21T09:14:08.974Z,28.47
2018-08-21T09:15:09.061Z,28.42
2018-08-21T09:16:08.458Z,28.37
2018-08-21T09:17:08.967Z,28.42
2018-08-21T09:18:08.466Z,28.47
2018-08-21T09:19:08.480Z,28.49
2018-08-21T09:20:08.845Z,28.42
2018-08-21T09:21:10.326Z,28.48
2018-08-21T09:22:08.740Z,28.51
2018-08-21T09:23:08.982Z,28.57
2018-08-21T09:24:08.502Z,28.62
2018-08-21T09:25:09.118Z,28.62
2018-08-21T09:26:09.018Z,28.74
2018-08-21T09:27:08.514Z,28.82
2018-08-21T09:28:09.039Z,28.89
2018-08-21T09:29:09.068Z,29.04
2018-08-21T09:30:08.896Z,28.94
2018-08-21T09:31:09.043Z,29.07
2018-08-21T09:32:08.795Z,29.07
2018-08-21T09:33:09.068Z,29.05
2018-08-21T09:34:08.807Z,29.04
2018-08-21T09:35:09.269Z,29.07
2018-08-21T09:36:09.064Z,28.96
2018-08-21T09:37:08.832Z,29.05
2018-08-21T09:38:09.309Z,28.89
2018-08-21T09:39:08.831Z,28.74
2018-08-21T09:40:08.960Z,28.72
2018-08-21T09:41:09.111Z,28.69
2018-08-21T09:42:09.122Z,28.6
2018-08-21T09:43:08.860Z,28.59
2018-08-21T09:44:08.618Z,28.54
2018-08-21T09:45:08.994Z,28.49
2018-08-21T09:46:08.868Z,28.48
2018-08-21T09:47:08.929Z,28.41
2018-08-21T09:48:08.872Z,28.37
2018-08-21T09:49:08.885Z,28.19
2018-08-21T09:50:09.353Z,28.33
2018-08-21T09:51:09.200Z,28.35
2018-08-21T09:52:08.638Z,28.41
2018-08-21T09:53:09.175Z,28.59
2018-08-21T09:54:08.927Z,28.7
2018-08-21T09:55:08.997Z,28.85
2018-08-21T09:56:08.914Z,29.01
2018-08-21T09:57:08.668Z,29.02
2018-08-21T09:58:08.930Z,29.19
2018-08-21T09:59:08.689Z,29.26
2018-08-21T10:00:09.202Z,29.45
2018-08-21T10:01:08.941Z,29.36
2018-08-21T10:02:09.064Z,29.41
2018-08-21T10:03:08.954Z,29.42
2018-08-21T10:04:09.227Z,29.24
2018-08-21T10:05:08.815Z,29.16
2018-08-21T10:06:08.977Z,29.07
2018-08-21T10:07:09.238Z,29.04
2018-08-21T10:08:09.242Z,29.04
2018-08-21T10:09:09.002Z,29.08
2018-08-21T10:10:09.055Z,29.1
2018-08-21T10:11:08.731Z,29.16
2018-08-21T10:12:08.732Z,29.26
2018-08-21T10:13:09.247Z,29.29
2018-08-21T10:14:09.003Z,29.36
2018-08-21T10:15:09.105Z,29.38
2018-08-21T10:16:08.770Z,29.56
2018-08-21T10:17:09.027Z,29.69
2018-08-21T10:18:09.051Z,29.75
2018-08-21T10:19:09.329Z,29.91
2018-08-21T10:20:09.381Z,30.09
2018-08-21T10:21:09.318Z,30.16
2018-08-21T10:22:08.803Z,30.12
2018-08-21T10:23:09.315Z,30.03
2018-08-21T10:24:09.076Z,30.12
2018-08-21T10:25:09.328Z,30.13
2018-08-21T10:26:09.065Z,30.13
2018-08-21T10:27:09.080Z,30.02
2018-08-21T10:28:09.081Z,29.88
2018-08-21T10:29:09.349Z,29.65
2018-08-21T10:30:09.360Z,29.44
2018-08-21T10:31:08.845Z,29.24
2018-08-21T10:32:09.136Z,29.12
2018-08-21T10:33:09.381Z,29.13
2018-08-21T10:34:09.374Z,29.07
2018-08-21T10:35:09.561Z,29.02
2018-08-21T10:36:09.392Z,29.04
2018-08-21T10:37:09.147Z,29.1
2018-08-21T10:38:09.410Z,29.07
2018-08-21T10:39:09.156Z,29.27
2018-08-21T10:40:09.415Z,29.39
2018-08-21T10:41:09.424Z,29.38
2018-08-21T10:42:09.180Z,29.34
2018-08-21T10:43:09.204Z,29.23
2018-08-21T10:44:09.437Z,29.35
2018-08-21T10:45:09.290Z,29.34
2018-08-21T10:46:09.448Z,29.23
2018-08-21T10:47:09.451Z,29.24
2018-08-21T10:48:09.196Z,29.38
2018-08-21T10:49:09.216Z,29.27
2018-08-21T10:50:09.237Z,29.22
2018-08-21T10:51:09.463Z,29.27
2018-08-21T10:52:09.736Z,29.22
2018-08-21T10:53:09.482Z,29.34
2018-08-21T10:54:09.484Z,29.26
2018-08-21T10:55:09.508Z,29.34
2018-08-21T10:56:09.251Z,29.35
2018-08-21T10:57:09.244Z,29.34
2018-08-21T10:58:08.990Z,29.38
2018-08-21T10:59:09.255Z,29.32
2018-08-21T11:00:09.556Z,29.31
2018-08-21T11:01:09.274Z,29.27
2018-08-21T11:02:09.321Z,29.26
2018-08-21T11:03:09.549Z,29.1
2018-08-21T11:04:09.038Z,29.26
2018-08-21T11:05:09.294Z,29.35
2018-08-21T11:06:09.297Z,29.61
2018-08-21T11:07:09.554Z,29.71
2018-08-21T11:08:09.568Z,29.86
2018-08-21T11:09:09.324Z,30.06
2018-08-21T11:10:09.062Z,30.28
2018-08-21T11:11:09.588Z,30.18
2018-08-21T11:12:09.326Z,30.28
2018-08-21T11:13:09.364Z,30.46
2018-08-21T11:14:09.609Z,30.55
2018-08-21T11:15:09.347Z,30.55
2018-08-21T11:16:09.349Z,30.63
2018-08-21T11:17:09.375Z,30.77
2018-08-21T11:18:09.813Z,30.7
2018-08-21T11:19:09.377Z,30.61
2018-08-21T11:20:09.181Z,30.57
2018-08-21T11:21:09.590Z,30.55
2018-08-21T11:22:09.560Z,30.24
2018-08-21T11:23:09.398Z,30.12
2018-08-21T11:24:09.908Z,30.06
2018-08-21T11:25:09.415Z,29.98
2018-08-21T11:26:09.409Z,29.94
2018-08-21T11:27:09.429Z,30.08
2018-08-21T11:28:09.678Z,30.12
2018-08-21T11:29:09.422Z,29.94
2018-08-21T11:30:09.503Z,30.12
2018-08-21T11:31:09.445Z,30.19
2018-08-21T11:32:09.459Z,30.46
2018-08-21T11:33:09.716Z,30.54
2018-08-21T11:34:09.726Z,30.43
2018-08-21T11:35:09.565Z,30.48
2018-08-21T11:36:09.223Z,30.5
2018-08-21T11:37:09.481Z,30.62
2018-08-21T11:38:09.613Z,30.73
2018-08-21T11:39:09.505Z,30.87
2018-08-21T11:40:09.367Z,31
2018-08-21T11:41:09.496Z,31
2018-08-21T11:42:09.761Z,31.09
2018-08-21T11:43:09.532Z,31.15
2018-08-21T11:44:09.505Z,31.18
2018-08-21T11:45:09.559Z,31.27
2018-08-21T11:46:09.526Z,31.4
2018-08-21T11:47:09.279Z,31.52
2018-08-21T11:48:10.019Z,31.62
2018-08-21T11:49:09.800Z,31.64
2018-08-21T11:50:09.920Z,31.73
2018-08-21T11:51:09.561Z,31.64
2018-08-21T11:52:11.422Z,31.55
2018-08-21T11:53:09.589Z,31.31
2018-08-21T11:54:09.836Z,31.12
2018-08-21T11:55:09.698Z,30.96
2018-08-21T11:56:09.593Z,31.02
2018-08-21T11:57:09.727Z,30.99
2018-08-21T11:58:09.609Z,30.92
2018-08-21T11:59:09.877Z,30.92
2018-08-21T12:00:10.023Z,30.94
2018-08-21T12:01:09.887Z,30.88
2018-08-21T12:02:09.423Z,30.75
2018-08-21T12:03:09.371Z,30.66
2018-08-21T12:04:09.905Z,30.5
2018-08-21T12:05:09.836Z,30.39
2018-08-21T12:06:09.907Z,30.16
2018-08-21T12:07:09.916Z,30.08
2018-08-21T12:08:09.918Z,30.02
2018-08-21T12:09:09.803Z,30.12
2018-08-21T12:10:09.526Z,30.09
2018-08-21T12:11:09.943Z,30.16
2018-08-21T12:12:09.968Z,30.13
2018-08-21T12:13:09.947Z,30.15
2018-08-21T12:14:09.703Z,30.37
2018-08-21T12:15:09.761Z,30.3
2018-08-21T12:16:09.706Z,30.4
2018-08-21T12:17:09.726Z,30.44
2018-08-21T12:18:09.981Z,30.4
2018-08-21T12:19:09.737Z,30.39
2018-08-21T12:20:10.205Z,30.27
2018-08-21T12:21:10.002Z,30.19
2018-08-21T12:22:09.749Z,30.13
2018-08-21T12:23:10.003Z,30.27
2018-08-21T12:24:09.489Z,30.24
2018-08-21T12:25:09.899Z,30.3
2018-08-21T12:26:10.016Z,30.37
2018-08-21T12:27:09.766Z,30.31
2018-08-21T12:28:09.531Z,30.34
2018-08-21T12:29:10.064Z,30.35
2018-08-21T12:30:10.182Z,30.37
2018-08-21T12:31:10.049Z,30.34
2018-08-21T12:32:10.124Z,30.43
2018-08-21T12:33:10.092Z,30.62
2018-08-21T12:34:09.874Z,30.63
2018-08-21T12:35:09.566Z,30.63
2018-08-21T12:36:09.821Z,30.59
2018-08-21T12:37:09.628Z,30.61
2018-08-21T12:38:10.177Z,30.47
2018-08-21T12:39:10.110Z,30.37
2018-08-21T12:40:09.895Z,30.46
2018-08-21T12:41:09.592Z,30.46
2018-08-21T12:42:10.151Z,30.69
2018-08-21T12:43:09.894Z,30.68
2018-08-21T12:44:10.139Z,30.87
2018-08-21T12:45:10.119Z,30.69
2018-08-21T12:46:09.874Z,30.65
2018-08-21T12:47:09.883Z,30.72
2018-08-21T12:48:09.882Z,30.75
2018-08-21T12:49:09.908Z,30.84
2018-08-21T12:50:10.064Z,30.96
2018-08-21T12:51:10.172Z,31.14
2018-08-21T12:52:09.930Z,31.07
2018-08-21T12:53:10.193Z,31.07
2018-08-21T12:54:10.189Z,31.12
2018-08-21T12:55:10.058Z,31.2
2018-08-21T12:56:09.951Z,31.29
2018-08-21T12:57:10.199Z,31.27
2018-08-21T12:58:10.210Z,31.21
2018-08-21T12:59:10.243Z,31.06
2018-08-21T13:00:10.254Z,30.88
2018-08-21T13:01:09.980Z,30.83
2018-08-21T13:02:09.972Z,30.72
2018-08-21T13:03:09.747Z,30.63
2018-08-21T13:04:10.516Z,30.62
2018-08-21T13:05:10.337Z,30.63
2018-08-21T13:06:10.253Z,30.63
2018-08-21T13:07:10.012Z,30.69
2018-08-21T13:08:10.272Z,30.72
2018-08-21T13:09:10.283Z,30.91
2018-08-21T13:10:10.175Z,30.9
2018-08-21T13:11:10.029Z,30.85
2018-08-21T13:12:10.294Z,30.78
2018-08-21T13:13:10.059Z,30.73
2018-08-21T13:14:10.031Z,30.62
2018-08-21T13:15:10.138Z,30.62
2018-08-21T13:16:10.045Z,30.51
2018-08-21T13:17:10.060Z,30.55
2018-08-21T13:18:10.074Z,30.59
2018-08-21T13:19:10.340Z,30.65
2018-08-21T13:20:10.291Z,30.54
2018-08-21T13:21:10.091Z,30.46
2018-08-21T13:22:10.087Z,30.37
2018-08-21T13:23:10.355Z,30.32
2018-08-21T13:24:10.370Z,30.35
2018-08-21T13:25:10.449Z,30.54
2018-08-21T13:26:10.361Z,30.57
2018-08-21T13:27:10.365Z,30.55
2018-08-21T13:28:10.375Z,30.63
2018-08-21T13:29:10.462Z,30.61
2018-08-21T13:30:10.405Z,30.62
2018-08-21T13:31:09.885Z,30.55
2018-08-21T13:32:10.148Z,30.53
2018-08-21T13:33:10.142Z,30.54
2018-08-21T13:34:10.435Z,30.62
2018-08-21T13:35:10.592Z,30.62
2018-08-21T13:36:10.622Z,30.59
2018-08-21T13:37:10.653Z,30.44
2018-08-21T13:38:10.179Z,30.4
2018-08-21T13:39:10.462Z,30.48
2018-08-21T13:40:10.672Z,30.44
2018-08-21T13:41:10.458Z,30.4
2018-08-21T13:42:10.466Z,30.61
2018-08-21T13:43:10.453Z,30.54
2018-08-21T13:44:10.334Z,30.53
2018-08-21T13:45:10.433Z,30.61
2018-08-21T13:46:09.961Z,30.78
2018-08-21T13:47:10.483Z,30.75
2018-08-21T13:48:10.505Z,30.8
2018-08-21T13:49:10.496Z,30.81
2018-08-21T13:50:10.130Z,30.92
2018-08-21T13:51:10.502Z,30.94
2018-08-21T13:52:10.520Z,31
2018-08-21T13:53:10.267Z,31.07
2018-08-21T13:54:10.533Z,31.06
2018-08-21T13:55:10.502Z,30.99
2018-08-21T13:56:10.276Z,30.96
2018-08-21T13:57:10.291Z,30.91
2018-08-21T13:58:10.305Z,30.9
2018-08-21T13:59:10.316Z,30.96
2018-08-21T14:00:10.396Z,30.94
2018-08-21T14:01:10.292Z,31.02
2018-08-21T14:02:10.159Z,30.96
2018-08-21T14:03:10.319Z,30.96
2018-08-21T14:04:10.615Z,30.96
2018-08-21T14:05:10.342Z,30.92
2018-08-21T14:06:10.341Z,30.99
2018-08-21T14:07:10.335Z,30.97
2018-08-21T14:08:10.093Z,30.96
2018-08-21T14:09:10.364Z,30.94
2018-08-21T14:10:10.706Z,30.92
2018-08-21T14:11:10.642Z,30.97
2018-08-21T14:12:10.372Z,30.85
2018-08-21T14:13:10.878Z,30.75
2018-08-21T14:14:10.381Z,30.77
2018-08-21T14:15:10.814Z,30.63
2018-08-21T14:16:10.383Z,30.61
2018-08-21T14:17:10.649Z,30.63
2018-08-21T14:18:10.420Z,30.61
2018-08-21T14:19:10.420Z,30.59
2018-08-21T14:20:11.040Z,30.61
2018-08-21T14:21:10.684Z,30.72
2018-08-21T14:22:10.436Z,30.8
2018-08-21T14:23:10.756Z,30.72
2018-08-21T14:24:10.437Z,30.68
2018-08-21T14:25:11.002Z,30.84
2018-08-21T14:26:10.716Z,30.85
2018-08-21T14:27:10.191Z,30.85
2018-08-21T14:28:10.961Z,30.88
2018-08-21T14:29:10.892Z,30.9
2018-08-21T14:30:10.739Z,30.78
2018-08-21T14:31:10.737Z,30.87
2018-08-21T14:32:10.220Z,30.77
2018-08-21T14:33:10.729Z,30.87
2018-08-21T14:34:10.592Z,30.72
2018-08-21T14:35:10.567Z,30.73
2018-08-21T14:36:10.498Z,30.91
2018-08-21T14:37:10.505Z,30.87
2018-08-21T14:38:10.257Z,30.92
2018-08-21T14:39:10.643Z,31
2018-08-21T14:40:10.806Z,31
2018-08-21T14:41:10.535Z,30.92
2018-08-21T14:42:10.791Z,30.91
2018-08-21T14:43:10.285Z,30.94
2018-08-21T14:44:10.817Z,30.92
2018-08-21T14:45:11.065Z,30.94
2018-08-21T14:46:11.191Z,30.9
2018-08-21T14:47:10.815Z,30.94
2018-08-21T14:48:10.585Z,30.96
2018-08-21T14:49:10.851Z,31.05
2018-08-21T14:50:10.939Z,31.07
2018-08-21T14:51:10.941Z,31.22
2018-08-21T14:52:10.594Z,31.29
2018-08-21T14:53:11.031Z,31.4
2018-08-21T14:54:10.637Z,31.33
2018-08-21T14:55:10.946Z,31.34
2018-08-21T14:56:10.639Z,31.29
2018-08-21T14:57:10.880Z,31.02
2018-08-21T14:58:11.012Z,30.84
2018-08-21T14:59:10.635Z,30.9
2018-08-21T15:00:11.059Z,30.87
2018-08-21T15:01:10.684Z,30.91
2018-08-21T15:02:10.698Z,30.87
2018-08-21T15:03:10.924Z,30.8
2018-08-21T15:04:10.678Z,30.77
2018-08-21T15:05:10.564Z,30.77
2018-08-21T15:06:10.411Z,30.91
2018-08-21T15:07:10.702Z,30.85
2018-08-21T15:08:10.696Z,30.85
2018-08-21T15:09:10.428Z,30.9
2018-08-21T15:10:11.214Z,30.81
2018-08-21T15:11:11.063Z,30.78
2018-08-21T15:12:10.997Z,30.8
2018-08-21T15:13:10.967Z,30.85
2018-08-21T15:14:10.995Z,30.87
2018-08-21T15:15:11.041Z,30.88
2018-08-21T15:16:10.738Z,30.9
2018-08-21T15:17:10.724Z,30.87
2018-08-21T15:18:11.005Z,30.92
2018-08-21T15:19:11.024Z,30.94
2018-08-21T15:20:10.981Z,30.97
2018-08-21T15:21:11.014Z,30.81
2018-08-21T15:22:11.155Z,30.84
2018-08-21T15:23:11.844Z,30.77
2018-08-21T15:24:11.031Z,30.75
2018-08-21T15:25:10.974Z,30.75
2018-08-21T15:26:11.044Z,30.88
2018-08-21T15:27:10.787Z,30.8
2018-08-21T15:28:11.051Z,30.91
2018-08-21T15:29:11.081Z,30.92
2018-08-21T15:30:10.925Z,30.97
2018-08-21T15:31:10.806Z,30.97
2018-08-21T15:32:11.070Z,30.92
2018-08-21T15:33:10.867Z,30.92
2018-08-21T15:34:10.846Z,30.96
2018-08-21T15:35:11.078Z,30.9
2018-08-21T15:36:10.916Z,30.72
2018-08-21T15:37:10.869Z,30.75
2018-08-21T15:38:10.883Z,30.75
2018-08-21T15:39:11.421Z,30.8
2018-08-21T15:40:10.821Z,30.77
2018-08-21T15:41:11.207Z,30.84
2018-08-21T15:42:11.139Z,30.85
2018-08-21T15:43:10.943Z,30.87
2018-08-21T15:44:11.312Z,30.83
2018-08-21T15:45:11.365Z,30.83
2018-08-21T15:46:11.159Z,30.96
2018-08-21T15:47:10.676Z,30.97
2018-08-21T15:48:10.654Z,30.91
2018-08-21T15:49:10.685Z,30.94
2018-08-21T15:50:11.664Z,30.97
2018-08-21T15:51:11.227Z,30.92
2018-08-21T15:52:10.955Z,30.88
2018-08-21T15:53:11.261Z,30.9
2018-08-21T15:54:10.980Z,30.96
2018-08-21T15:55:11.299Z,30.7
2018-08-21T15:56:10.697Z,30.78
2018-08-21T15:57:10.967Z,30.75
2018-08-21T15:58:10.998Z,30.73
2018-08-21T15:59:10.993Z,30.83
2018-08-21T16:00:11.469Z,30.84
2018-08-21T16:01:11.243Z,30.9
2018-08-21T16:02:11.327Z,30.91
2018-08-21T16:03:10.983Z,30.9
2018-08-21T16:04:11.017Z,30.97
2018-08-21T16:05:11.326Z,30.9
2018-08-21T16:06:10.758Z,30.88
2018-08-21T16:07:11.016Z,30.83
2018-08-21T16:08:11.041Z,30.88
2018-08-21T16:09:11.387Z,30.88
2018-08-21T16:10:10.886Z,30.87
2018-08-21T16:11:11.108Z,30.78
2018-08-21T16:12:11.082Z,30.75
2018-08-21T16:13:11.099Z,30.77
2018-08-21T16:14:11.154Z,30.73
2018-08-21T16:15:11.650Z,30.75
2018-08-21T16:16:11.061Z,30.73
2018-08-21T16:17:11.079Z,30.72
2018-08-21T16:18:11.070Z,30.77
2018-08-21T16:19:11.228Z,30.8
2018-08-21T16:20:11.369Z,30.99
2018-08-21T16:21:11.349Z,30.92
2018-08-21T16:22:11.098Z,30.91
2018-08-21T16:23:13.322Z,31.02
2018-08-21T16:24:11.128Z,31.05
2018-08-21T16:25:11.621Z,31.09
2018-08-21T16:26:11.125Z,31.1
2018-08-21T16:27:11.239Z,31.03
2018-08-21T16:28:11.137Z,31.17
2018-08-21T16:29:11.142Z,31.2
2018-08-21T16:30:11.313Z,31.21
2018-08-21T16:31:11.139Z,31.18
2018-08-21T16:32:10.900Z,31.17
2018-08-21T16:33:11.816Z,31.14
2018-08-21T16:34:11.435Z,31.09
2018-08-21T16:35:11.271Z,30.97
2018-08-21T16:36:10.947Z,30.87
2018-08-21T16:37:11.175Z,30.77
2018-08-21T16:38:11.177Z,30.75
2018-08-21T16:39:12.134Z,30.77
2018-08-21T16:40:12.151Z,30.72
2018-08-21T16:41:11.505Z,30.73
2018-08-21T16:42:11.205Z,30.81
2018-08-21T16:43:11.459Z,30.85
2018-08-21T16:44:11.556Z,30.87
2018-08-21T16:45:11.326Z,30.78
2018-08-21T16:46:11.013Z,30.61
2018-08-21T16:47:11.221Z,30.61
2018-08-21T16:48:11.246Z,30.63
2018-08-21T16:49:11.490Z,30.65
2018-08-21T16:50:11.197Z,30.65
2018-08-21T16:51:11.539Z,30.57
2018-08-21T16:52:11.264Z,30.48
2018-08-21T16:53:11.534Z,30.48
2018-08-21T16:54:11.518Z,30.4
2018-08-21T16:55:11.107Z,30.27
2018-08-21T16:56:11.027Z,30.27
2018-08-21T16:57:11.349Z,30.37
2018-08-21T16:58:11.291Z,30.32
2018-08-21T16:59:11.307Z,30.32
2018-08-21T17:00:11.565Z,30.28
2018-08-21T17:01:11.931Z,30.25
2018-08-21T17:02:11.329Z,30.27
2018-08-21T17:03:11.317Z,30.35
2018-08-21T17:04:11.312Z,30.34
2018-08-21T17:05:11.492Z,30.4
2018-08-21T17:06:11.317Z,30.4
2018-08-21T17:07:11.348Z,30.43
2018-08-21T17:08:11.351Z,30.47
2018-08-21T17:09:12.410Z,30.47
2018-08-21T17:10:11.849Z,30.39
2018-08-21T17:11:11.115Z,30.39
2018-08-21T17:12:11.419Z,30.39
2018-08-21T17:13:11.359Z,30.31
2018-08-21T17:14:11.400Z,30.19
2018-08-21T17:15:11.642Z,30.24
2018-08-21T17:16:11.381Z,30.24
2018-08-21T17:17:11.439Z,30.28
2018-08-21T17:18:11.398Z,30.37
2018-08-21T17:19:11.652Z,30.28
2018-08-21T17:20:11.853Z,30.31
2018-08-21T17:21:11.418Z,30.27
2018-08-21T17:22:11.671Z,30.3
2018-08-21T17:23:11.679Z,30.34
2018-08-21T17:24:11.691Z,30.31
2018-08-21T17:25:11.705Z,30.24
2018-08-21T17:26:11.695Z,30.21
2018-08-21T17:27:11.431Z,30.24
2018-08-21T17:28:11.732Z,30.13
2018-08-21T17:29:11.703Z,30.18
2018-08-21T17:30:11.734Z,30.24
2018-08-21T17:31:11.742Z,30.16
2018-08-21T17:32:11.713Z,30.16
2018-08-21T17:33:11.531Z,30.1
2018-08-21T17:34:11.478Z,30.15
2018-08-21T17:35:11.888Z,30.19
2018-08-21T17:36:11.742Z,30.12
2018-08-21T17:37:11.486Z,30.09
2018-08-21T17:38:11.767Z,30.02
2018-08-21T17:39:11.748Z,30.05
2018-08-21T17:40:11.775Z,30.03
2018-08-21T17:41:11.245Z,29.97
2018-08-21T17:42:11.515Z,30.08
2018-08-21T17:43:11.775Z,29.97
2018-08-21T17:44:11.558Z,30
2018-08-21T17:45:11.601Z,29.98
2018-08-21T17:46:11.785Z,30.03
2018-08-21T17:47:11.540Z,30.02
2018-08-21T17:48:11.289Z,29.95
2018-08-21T17:49:11.814Z,29.97
2018-08-21T17:50:11.314Z,29.93
2018-08-21T17:51:11.803Z,29.87
2018-08-21T17:52:11.825Z,29.86
2018-08-21T17:53:11.824Z,29.88
2018-08-21T17:54:13.688Z,29.76
2018-08-21T17:55:11.833Z,29.73
2018-08-21T17:56:11.321Z,29.86
2018-08-21T17:57:11.844Z,29.84
2018-08-21T17:58:11.850Z,29.73
2018-08-21T17:59:11.849Z,29.69
2018-08-21T18:00:11.604Z,29.69
2018-08-21T18:01:11.605Z,29.71
2018-08-21T18:02:11.611Z,29.75
2018-08-21T18:03:11.873Z,29.72
2018-08-21T18:04:11.874Z,29.61
2018-08-21T18:05:11.884Z,29.66
2018-08-21T18:06:11.627Z,29.54
2018-08-21T18:07:11.906Z,29.6
2018-08-21T18:17:43.989Z,29.23
2018-08-21T18:18:44.226Z,29.22
2018-08-21T18:19:44.195Z,29.22
2018-08-21T18:20:43.937Z,29.22
2018-08-21T18:21:44.247Z,29.2
2018-08-21T18:22:44.456Z,29.19
2018-08-21T18:23:44.498Z,29.02
2018-08-21T18:24:44.601Z,29.13
2018-08-21T18:25:44.485Z,28.97
2018-08-21T18:26:44.236Z,29.01
2018-08-21T18:27:44.470Z,28.97
2018-08-21T18:28:44.231Z,28.85
2018-08-21T18:29:44.255Z,28.75
2018-08-21T18:30:44.670Z,28.72
2018-08-21T18:31:44.484Z,28.69
2018-08-21T18:32:44.245Z,28.62
2018-08-21T18:33:44.506Z,28.51
2018-08-21T18:34:44.249Z,28.54
2018-08-21T18:35:44.505Z,28.39
2018-08-21T18:36:43.994Z,28.42
2018-08-21T18:37:44.265Z,28.29
2018-08-21T18:38:44.539Z,28.22
2018-08-21T18:39:44.267Z,28.2
2018-08-21T18:40:44.540Z,28.12
2018-08-21T18:41:44.298Z,28.07
2018-08-21T18:42:44.029Z,27.92
2018-08-21T18:43:44.662Z,27.87
2018-08-21T18:44:44.569Z,27.82
2018-08-21T18:45:44.556Z,27.74
2018-08-21T18:46:44.309Z,27.74
2018-08-21T18:47:44.319Z,27.74
2018-08-21T18:48:44.317Z,27.65
2018-08-21T18:49:44.585Z,27.6
2018-08-21T18:50:44.315Z,27.58
2018-08-21T18:51:44.061Z,27.58
2018-08-21T18:52:44.340Z,27.42
2018-08-21T18:53:44.585Z,27.4